Time;durP1;ratioP1;P1;durP2;ratioP2;P2;SDS_P1;SDS_P2;PMS_P1;PMS_P2;Temp;Humidity;BMP_temperature;BMP_pressure;BME280_temperature;BME280_humidity;BME280_pressure;Samples;Min_cycle;Max_cycle;Signal;HPM_P1;HPM_P2
2023/10/11 00:00:33;;;;;;;2.67;1.93;;;;;12.90;96410.00;;;;5052888;28;20200;-61
2023/10/11 00:03:06;;;;;;;2.37;2.17;;;;;12.90;96411.00;;;;5052854;28;20208;-60
2023/10/11 00:05:39;;;;;;;1.60;1.50;;;;;12.60;96408.00;;;;5052672;28;20204;-61
2023/10/11 00:08:08;;;;;;;2.93;2.00;;;;;12.50;96414.00;;;;5053038;28;20184;-61
2023/10/11 00:10:42;;;;;;;2.73;2.00;;;;;12.10;96421.00;;;;5053147;28;20713;-61
2023/10/11 00:13:11;;;;;;;1.90;1.63;;;;;12.00;96411.00;;;;5053065;28;20252;-61
2023/10/11 00:15:40;;;;;;;3.13;1.63;;;;;12.10;96425.00;;;;5052669;28;20188;-61
2023/10/11 00:18:08;;;;;;;2.30;2.10;;;;;12.10;96423.00;;;;5052596;28;20200;-62
2023/10/11 00:20:50;;;;;;;2.27;1.67;;;;;12.20;96424.00;;;;5052574;28;20196;-61
2023/10/11 00:23:20;;;;;;;1.70;1.60;;;;;12.30;96421.00;;;;5052733;28;20208;-61
2023/10/11 00:25:50;;;;;;;1.43;1.33;;;;;12.30;96418.00;;;;5052772;28;20212;-61
2023/10/11 00:28:20;;;;;;;1.53;1.50;;;;;12.30;96410.00;;;;5052572;28;20200;-61
2023/10/11 00:30:48;;;;;;;1.53;1.43;;;;;12.30;96410.00;;;;5055701;28;20197;-61
2023/10/11 00:33:16;;;;;;;5.00;2.13;;;;;12.30;96410.00;;;;5056166;28;20199;-61
2023/10/11 00:35:47;;;;;;;2.10;1.77;;;;;12.20;96405.00;;;;5056167;28;20271;-62
2023/10/11 00:38:18;;;;;;;1.37;1.37;;;;;12.30;96417.00;;;;5056699;28;20180;-61
2023/10/11 00:40:47;;;;;;;2.30;2.20;;;;;12.30;96406.00;;;;5055965;28;20195;-61
2023/10/11 00:43:17;;;;;;;1.10;1.10;;;;;12.20;96403.00;;;;5056490;28;20188;-61
2023/10/11 00:45:46;;;;;;;1.70;1.40;;;;;12.20;96396.00;;;;5055974;28;20212;-61
2023/10/11 00:48:19;;;;;;;1.57;1.47;;;;;12.10;96391.00;;;;5056248;28;20258;-62
2023/10/11 00:50:50;;;;;;;1.63;1.53;;;;;12.20;96396.00;;;;5056423;28;20183;-61
2023/10/11 00:53:18;;;;;;;3.43;1.60;;;;;12.10;96393.00;;;;5055901;28;20271;-61
2023/10/11 00:55:46;;;;;;;1.47;1.37;;;;;12.10;96387.00;;;;5055945;28;20257;-61
2023/10/11 00:58:17;;;;;;;3.40;2.67;;;;;12.10;96385.00;;;;5055730;28;20196;-61
2023/10/11 01:00:45;;;;;;;0.70;0.70;;;;;12.00;96389.00;;;;5056385;28;20180;-62
2023/10/11 01:03:14;;;;;;;3.27;1.33;;;;;11.90;96381.00;;;;5055861;28;20200;-62
2023/10/11 01:05:44;;;;;;;3.27;2.97;;;;;11.90;96381.00;;;;5055588;28;20220;-62
2023/10/11 01:08:12;;;;;;;6.13;1.43;;;;;11.80;96388.00;;;;5055554;28;20202;-63
2023/10/11 01:10:45;;;;;;;1.97;1.87;;;;;11.80;96382.00;;;;5055588;28;20611;-62
2023/10/11 01:13:14;;;;;;;2.03;1.83;;;;;11.80;96387.00;;;;5055411;28;20180;-62
2023/10/11 01:15:42;;;;;;;1.83;1.73;;;;;11.70;96380.00;;;;5055454;28;20184;-60
2023/10/11 01:18:12;;;;;;;6.33;2.23;;;;;11.70;96388.00;;;;5055307;28;20196;-62
2023/10/11 01:20:41;;;;;;;1.20;1.20;;;;;11.60;96381.00;;;;5055283;28;20656;-61
2023/10/11 01:23:09;;;;;;;6.90;2.17;;;;;11.70;96374.00;;;;5055226;28;20212;-61
2023/10/11 01:25:36;;;;;;;2.17;2.00;;;;;11.70;96378.00;;;;5055369;28;20302;-61
2023/10/11 01:28:04;;;;;;;2.23;2.13;;;;;11.60;96375.00;;;;5055032;28;20682;-61
2023/10/11 01:30:31;;;;;;;2.17;1.57;;;;;11.50;96375.00;;;;5055310;28;20188;-61
2023/10/11 01:32:58;;;;;;;1.33;1.33;;;;;11.60;96377.00;;;;5055053;28;20216;-61
2023/10/11 01:35:35;;;;;;;1.00;1.00;;;;;11.60;96379.00;;;;5054948;28;20575;-61
2023/10/11 01:38:05;;;;;;;1.63;1.27;;;;;11.60;96375.00;;;;5055302;28;20250;-61
2023/10/11 01:40:33;;;;;;;1.13;1.13;;;;;11.60;96365.00;;;;5055487;28;20317;-61
2023/10/11 01:43:02;;;;;;;2.10;1.90;;;;;11.60;96367.00;;;;5053588;28;20697;-61
2023/10/11 01:45:31;;;;;;;1.60;1.50;;;;;11.60;96362.00;;;;5054696;28;20540;-62
2023/10/11 01:47:58;;;;;;;1.27;1.27;;;;;11.50;96367.00;;;;5055671;28;20714;-61
2023/10/11 01:50:28;;;;;;;1.93;1.80;;;;;11.50;96373.00;;;;5055074;28;20314;-61
2023/10/11 01:52:56;;;;;;;1.67;1.57;;;;;11.50;96369.00;;;;5054774;28;20211;-61
2023/10/11 01:55:24;;;;;;;2.87;1.97;;;;;11.40;96366.00;;;;5055045;28;20622;-61
2023/10/11 01:57:52;;;;;;;1.50;1.40;;;;;11.40;96370.00;;;;5054601;28;20199;-61
2023/10/11 02:00:23;;;;;;;1.10;1.10;;;;;11.30;96366.00;;;;5053238;28;20681;-61
2023/10/11 02:02:55;;;;;;;1.97;1.37;;;;;11.30;96367.00;;;;5054824;28;20555;-61
2023/10/11 02:05:23;;;;;;;2.50;2.33;;;;;11.30;96366.00;;;;5054717;28;20511;-61
2023/10/11 02:07:51;;;;;;;3.00;1.43;;;;;11.30;96365.00;;;;5054545;28;20242;-61
2023/10/11 02:10:26;;;;;;;1.40;1.40;;;;;11.20;96356.00;;;;5054382;28;20202;-61
2023/10/11 02:12:57;;;;;;;1.07;1.07;;;;;11.30;96353.00;;;;5054214;28;20231;-61
2023/10/11 02:15:28;;;;;;;1.43;1.33;;;;;11.30;96361.00;;;;5054567;28;20184;-61
2023/10/11 02:17:56;;;;;;;1.20;1.20;;;;;11.30;96353.00;;;;5052910;28;20666;-61
2023/10/11 02:20:24;;;;;;;1.30;1.20;;;;;11.20;96355.00;;;;5054609;28;20574;-61
2023/10/11 02:22:53;;;;;;;4.17;2.50;;;;;11.20;96358.00;;;;5053728;28;20612;-61
2023/10/11 02:25:24;;;;;;;1.57;1.47;;;;;11.00;96361.00;;;;5054077;28;20196;-61
2023/10/11 02:27:54;;;;;;;3.40;2.00;;;;;11.10;96359.00;;;;5054321;28;20234;-62
2023/10/11 02:30:24;;;;;;;3.83;2.40;;;;;11.20;96363.00;;;;5053930;28;20706;-61
2023/10/11 02:32:53;;;;;;;2.63;1.90;;;;;11.20;96349.00;;;;5054037;28;20219;-61
2023/10/11 02:35:26;;;;;;;1.53;1.43;;;;;11.30;96355.00;;;;5053787;28;20200;-61
2023/10/11 02:37:55;;;;;;;1.70;1.60;;;;;11.20;96362.00;;;;5053905;28;20185;-61
2023/10/11 02:40:24;;;;;;;2.03;1.93;;;;;11.30;96355.00;;;;5053887;28;20242;-61
2023/10/11 02:42:55;;;;;;;3.50;2.20;;;;;11.30;96343.00;;;;5053641;28;20269;-61
2023/10/11 02:45:24;;;;;;;1.30;1.23;;;;;11.30;96350.00;;;;5053560;28;20528;-61
2023/10/11 02:47:59;;;;;;;3.27;1.67;;;;;11.30;96342.00;;;;5053607;28;20212;-61
2023/10/11 02:50:26;;;;;;;3.60;2.23;;;;;11.30;96337.00;;;;5052452;28;20199;-61
2023/10/11 02:52:59;;;;;;;1.63;1.57;;;;;11.30;96345.00;;;;5051975;28;20220;-61
2023/10/11 02:55:27;;;;;;;1.70;1.60;;;;;11.30;96333.00;;;;5053572;28;20189;-61
2023/10/11 02:58:06;;;;;;;2.07;1.60;;;;;11.10;96339.00;;;;5053491;28;20286;-61
2023/10/11 03:00:36;;;;;;;6.17;1.60;;;;;11.10;96348.00;;;;5053459;28;20208;-61
2023/10/11 03:03:07;;;;;;;1.83;1.73;;;;;11.20;96340.00;;;;5053710;28;20215;-61
2023/10/11 03:05:37;;;;;;;1.03;1.03;;;;;11.20;96332.00;;;;5053476;28;20227;-61
2023/10/11 03:08:14;;;;;;;2.57;2.37;;;;;11.10;96332.00;;;;5053408;28;20669;-61
2023/10/11 03:10:53;;;;;;;1.87;1.77;;;;;11.20;96333.00;;;;5053928;28;20262;-62
2023/10/11 03:13:24;;;;;;;1.67;1.57;;;;;11.20;96333.00;;;;5053533;28;20180;-61
2023/10/11 03:15:57;;;;;;;2.30;2.10;;;;;11.20;96329.00;;;;5053742;28;20207;-61
2023/10/11 03:18:26;;;;;;;1.40;1.40;;;;;11.20;96337.00;;;;5053308;28;20658;-61
2023/10/11 03:21:07;;;;;;;2.47;1.63;;;;;11.00;96333.00;;;;5053416;28;20199;-61
2023/10/11 03:23:43;;;;;;;2.30;1.30;;;;;11.00;96335.00;;;;5053448;28;20353;-61
2023/10/11 03:26:17;;;;;;;1.73;1.63;;;;;10.90;96333.00;;;;5053473;28;20562;-62
2023/10/11 03:28:45;;;;;;;1.37;1.27;;;;;10.90;96322.00;;;;5053686;28;20191;-62
2023/10/11 03:31:15;;;;;;;2.43;2.23;;;;;10.90;96324.00;;;;5053101;28;20208;-61
2023/10/11 03:33:43;;;;;;;1.50;1.47;;;;;10.70;96330.00;;;;5053144;28;20567;-61
2023/10/11 03:36:18;;;;;;;1.63;1.53;;;;;10.70;96329.00;;;;5053581;28;20184;-62
2023/10/11 03:38:51;;;;;;;3.80;1.40;;;;;10.70;96320.00;;;;5053365;28;20229;-61
2023/10/11 03:41:25;;;;;;;2.33;1.70;;;;;10.80;96321.00;;;;5053020;28;20216;-61
2023/10/11 03:43:55;;;;;;;1.40;1.33;;;;;10.70;96324.00;;;;5053321;28;20226;-61
2023/10/11 03:46:28;;;;;;;1.03;1.03;;;;;10.80;96323.00;;;;5053104;28;20226;-61
2023/10/11 03:49:14;;;;;;;3.73;1.47;;;;;10.80;96325.00;;;;5053407;28;20556;-61
2023/10/11 03:51:43;;;;;;;2.27;2.03;;;;;10.60;96327.00;;;;5052882;28;20657;-61
2023/10/11 03:54:13;;;;;;;0.83;0.83;;;;;10.70;96328.00;;;;5052848;28;20270;-61
2023/10/11 03:56:45;;;;;;;2.33;2.20;;;;;10.70;96322.00;;;;5053180;28;20187;-61
2023/10/11 03:59:13;;;;;;;2.10;1.93;;;;;10.70;96321.00;;;;5053325;28;20263;-61
2023/10/11 04:01:43;;;;;;;1.13;1.13;;;;;10.70;96322.00;;;;5052806;28;20582;-62
2023/10/11 04:04:10;;;;;;;1.57;1.50;;;;;10.60;96320.00;;;;5053640;28;20261;-61
2023/10/11 04:06:38;;;;;;;1.40;1.40;;;;;10.70;96329.00;;;;5056797;28;20322;-61
2023/10/11 04:09:21;;;;;;;1.50;1.43;;;;;10.80;96321.00;;;;5056661;28;20196;-61
2023/10/11 04:11:54;;;;;;;1.73;1.63;;;;;10.80;96314.00;;;;5056954;28;20568;-61
2023/10/11 04:14:32;;;;;;;3.97;2.73;;;;;10.40;96320.00;;;;5056856;28;20608;-61
2023/10/11 04:17:04;;;;;;;1.20;1.20;;;;;10.30;96317.00;;;;5056600;28;20172;-61
2023/10/11 04:19:32;;;;;;;2.10;2.00;;;;;10.20;96318.00;;;;5054964;28;20192;-61
2023/10/11 04:22:12;;;;;;;5.50;1.50;;;;;10.10;96310.00;;;;5056338;28;20653;-61
2023/10/11 04:24:41;;;;;;;2.67;2.50;;;;;10.00;96316.00;;;;5056224;28;20195;-61
2023/10/11 04:29:50;;;;;;;2.40;2.20;;;;;10.10;96319.00;;;;5056656;28;20734;-61
2023/10/11 04:32:40;;;;;;;1.33;1.33;;;;;10.30;96318.00;;;;5056592;28;20208;-61
2023/10/11 04:35:19;;;;;;;2.03;1.93;;;;;10.40;96320.00;;;;5056072;28;20204;-61
2023/10/11 04:37:52;;;;;;;1.40;1.40;;;;;10.40;96327.00;;;;5056138;28;20538;-61
2023/10/11 04:40:23;;;;;;;2.00;1.90;;;;;10.50;96324.00;;;;5056503;28;20180;-61
2023/10/11 04:43:04;;;;;;;0.80;0.80;;;;;10.40;96319.00;;;;5055868;28;20624;-62
2023/10/11 04:45:43;;;;;;;1.03;1.03;;;;;10.40;96326.00;;;;5055955;28;20208;-61
2023/10/11 04:48:14;;;;;;;4.60;2.87;;;;;10.30;96323.00;;;;5056085;28;20207;-62
2023/10/11 04:50:45;;;;;;;1.77;1.67;;;;;10.20;96325.00;;;;5055903;28;20643;-61
2023/10/11 04:53:17;;;;;;;1.43;1.40;;;;;10.10;96320.00;;;;5055539;28;20599;-61
2023/10/11 04:55:47;;;;;;;1.33;1.23;;;;;10.20;96322.00;;;;5056047;28;20279;-61
2023/10/11 04:58:40;;;;;;;1.20;1.20;;;;;10.30;96324.00;;;;5055706;28;20656;-61
2023/10/11 05:01:11;;;;;;;7.97;6.83;;;;;10.20;96325.00;;;;5055954;28;20219;-61
2023/10/11 05:03:42;;;;;;;4.07;3.63;;;;;10.00;96330.00;;;;5055568;28;20203;-61
2023/10/11 05:06:27;;;;;;;3.07;2.77;;;;;9.90;96323.00;;;;5055573;28;20180;-61
2023/10/11 05:09:05;;;;;;;1.60;1.50;;;;;10.10;96332.00;;;;5055270;28;20188;-61
2023/10/11 05:11:36;;;;;;;1.43;1.37;;;;;9.90;96326.00;;;;5055672;28;20254;-61
2023/10/11 05:14:26;;;;;;;2.00;1.70;;;;;9.80;96326.00;;;;5055519;28;20264;-61
2023/10/11 05:16:59;;;;;;;1.53;1.43;;;;;9.70;96325.00;;;;5055416;28;20195;-61
2023/10/11 05:19:28;;;;;;;0.93;0.93;;;;;9.60;96326.00;;;;5055901;28;20190;-61
2023/10/11 05:21:58;;;;;;;1.37;1.33;;;;;9.60;96328.00;;;;5055053;28;20227;-61
2023/10/11 05:24:43;;;;;;;1.13;1.13;;;;;9.70;96322.00;;;;5055154;28;20191;-61
2023/10/11 05:27:36;;;;;;;1.67;1.57;;;;;9.80;96335.00;;;;5055207;28;20214;-61
2023/10/11 05:30:12;;;;;;;1.37;1.33;;;;;9.80;96333.00;;;;5055308;28;20188;-61
2023/10/11 05:32:49;;;;;;;1.67;1.50;;;;;9.70;96325.00;;;;5055171;28;20212;-61
2023/10/11 05:35:53;;;;;;;1.83;1.73;;;;;9.70;96318.00;;;;5055023;28;20180;-62
2023/10/11 05:52:08;;;;;;;7.37;2.20;;;;;9.90;96329.00;;;;5054597;28;20696;-61
2023/10/11 05:54:35;;;;;;;3.13;1.93;;;;;9.80;96329.00;;;;5054457;28;20192;-61
2023/10/11 05:57:04;;;;;;;2.50;2.00;;;;;9.80;96332.00;;;;5055229;28;20658;-61
2023/10/11 05:59:33;;;;;;;1.67;1.57;;;;;9.90;96325.00;;;;5054663;28;20227;-61
2023/10/11 06:02:02;;;;;;;1.50;1.40;;;;;10.00;96331.00;;;;5054634;28;20215;-61
2023/10/11 06:04:31;;;;;;;2.30;2.10;;;;;10.00;96303.00;;;;5054392;28;20192;-61
2023/10/11 06:06:58;;;;;;;1.03;1.03;;;;;10.00;96336.00;;;;5055302;28;20662;-61
2023/10/11 06:09:27;;;;;;;1.23;1.23;;;;;10.00;96331.00;;;;5054594;28;20598;-61
2023/10/11 06:11:57;;;;;;;2.53;1.43;;;;;9.90;96333.00;;;;5054271;28;20246;-62
2023/10/11 06:14:24;;;;;;;1.47;1.37;;;;;9.90;96318.00;;;;5052961;28;20246;-61
2023/10/11 06:16:57;;;;;;;2.47;1.23;;;;;9.90;96317.00;;;;5054398;28;20670;-62
2023/10/11 06:19:26;;;;;;;2.07;1.97;;;;;9.90;96315.00;;;;5054366;28;20642;-61
2023/10/11 06:21:58;;;;;;;0.90;0.90;;;;;10.00;96314.00;;;;5054077;28;20306;-61
2023/10/11 06:24:30;;;;;;;3.80;2.60;;;;;10.10;96312.00;;;;5052836;28;20184;-61
2023/10/11 06:28:09;;;;;;;1.80;1.67;;;;;10.10;96317.00;;;;5053619;28;20204;-62
2023/10/11 06:29:45;;;;;;;2.10;2.00;;;;;10.20;96316.00;;;;5052626;28;20215;-61
2023/10/11 06:32:13;;;;;;;2.33;2.13;;;;;10.30;96321.00;;;;5054669;28;20621;-61
2023/10/11 06:34:45;;;;;;;2.07;1.70;;;;;10.20;96321.00;;;;5054247;28;20200;-61
2023/10/11 06:37:17;;;;;;;1.20;1.20;;;;;10.10;96319.00;;;;5053960;28;20177;-61
2023/10/11 06:42:32;;;;;;;2.00;1.60;;;;;10.30;96321.00;;;;5053689;28;20329;-61
2023/10/11 06:45:00;;;;;;;2.40;2.20;;;;;10.40;96321.00;;;;5053923;28;20191;-61
2023/10/11 06:47:33;;;;;;;6.53;2.07;;;;;10.30;96327.00;;;;5053537;28;20591;-61
2023/10/11 06:50:10;;;;;;;7.97;1.67;;;;;10.10;96327.00;;;;5053817;28;20192;-61
2023/10/11 06:52:43;;;;;;;1.37;1.17;;;;;10.30;96331.00;;;;5053686;28;20306;-62
2023/10/11 06:55:17;;;;;;;14.13;1.97;;;;;10.50;96342.00;;;;5053346;28;20271;-61
2023/10/11 06:57:50;;;;;;;2.03;1.67;;;;;10.60;96339.00;;;;5053828;28;20223;-62
2023/10/11 07:00:23;;;;;;;23.33;15.00;;;;;10.70;96350.00;;;;5052156;28;20188;-61
2023/10/11 07:02:52;;;;;;;7.03;6.37;;;;;10.80;96340.00;;;;5053696;28;20295;-61
2023/10/11 07:05:20;;;;;;;2.83;2.63;;;;;10.80;96336.00;;;;5053496;28;20192;-61
2023/10/11 07:07:52;;;;;;;4.47;2.37;;;;;10.90;96336.00;;;;5053494;28;20301;-61
2023/10/11 07:10:28;;;;;;;2.20;1.57;;;;;11.10;96337.00;;;;5052207;28;20195;-61
2023/10/11 07:13:04;;;;;;;1.80;1.70;;;;;11.10;96336.00;;;;5051939;28;20223;-61
2023/10/11 07:15:40;;;;;;;1.23;1.23;;;;;11.30;96335.00;;;;5053199;28;20229;-61
2023/10/11 07:18:10;;;;;;;5.30;2.77;;;;;11.40;96346.00;;;;5053344;28;20196;-62
2023/10/11 07:20:58;;;;;;;2.10;1.90;;;;;11.40;96346.00;;;;5051494;28;20196;-61
2023/10/11 07:23:35;;;;;;;1.70;1.60;;;;;11.50;96337.00;;;;5060776;28;20216;-63
2023/10/11 07:26:48;;;;;;;1.80;1.70;;;;;11.50;96340.00;;;;5048635;28;20266;-63
2023/10/11 07:29:13;;;;;;;1.37;1.37;;;;;11.70;96343.00;;;;5068752;28;20219;-62
2023/10/11 07:31:48;;;;;;;1.80;1.47;;;;;11.80;96340.00;;;;5057367;28;20219;-63
2023/10/11 07:34:18;;;;;;;1.30;1.30;;;;;11.80;96337.00;;;;5063311;28;20202;-63
2023/10/11 07:36:48;;;;;;;15.13;1.33;;;;;11.90;96343.00;;;;5052233;28;20274;-62
2023/10/11 07:39:19;;;;;;;3.40;1.67;;;;;12.00;96349.00;;;;5058033;28;20207;-61
2023/10/11 07:41:49;;;;;;;0.97;0.97;;;;;12.00;96352.00;;;;5055824;28;20718;-61
2023/10/11 07:44:18;;;;;;;3.07;2.87;;;;;12.00;96360.00;;;;5065411;28;20209;-61
2023/10/11 07:46:46;;;;;;;1.40;1.30;;;;;12.30;96366.00;;;;5075872;28;20200;-61
2023/10/11 07:49:16;;;;;;;3.37;2.80;;;;;12.50;96363.00;;;;5075186;28;20653;-61
2023/10/11 07:51:44;;;;;;;2.63;1.97;;;;;12.70;96353.00;;;;5051280;28;20307;-61
2023/10/11 07:54:19;;;;;;;1.00;1.00;;;;;12.90;96358.00;;;;5056067;28;20196;-61
2023/10/11 07:56:49;;;;;;;1.53;1.43;;;;;13.00;96353.00;;;;5055637;28;20198;-62
2023/10/11 07:59:20;;;;;;;1.73;1.50;;;;;13.00;96349.00;;;;5067185;28;20659;-61
2023/10/11 08:01:48;;;;;;;1.47;1.40;;;;;13.20;96343.00;;;;5067368;28;20219;-62
2023/10/11 08:04:18;;;;;;;2.50;2.20;;;;;13.40;96338.00;;;;5055130;28;20808;-61
2023/10/11 08:06:45;;;;;;;2.37;2.20;;;;;13.50;96349.00;;;;5074481;28;20191;-62
2023/10/11 08:09:19;;;;;;;1.37;1.27;;;;;13.70;96351.00;;;;5074377;28;20242;-62
2023/10/11 08:11:52;;;;;;;0.93;0.93;;;;;13.80;96348.00;;;;5064945;28;20290;-61
2023/10/11 08:14:22;;;;;;;1.40;1.37;;;;;13.90;96348.00;;;;5069754;28;20661;-62
2023/10/11 08:16:50;;;;;;;1.50;1.40;;;;;14.00;96344.00;;;;5055058;28;20278;-62
2023/10/11 08:19:18;;;;;;;1.90;1.53;;;;;14.00;96347.00;;;;5054799;28;20192;-62
2023/10/11 08:21:54;;;;;;;1.70;1.60;;;;;14.20;96337.00;;;;5058845;28;20231;-61
2023/10/11 08:24:25;;;;;;;1.60;0.90;;;;;14.40;96343.00;;;;5056045;28;20203;-61
2023/10/11 08:26:57;;;;;;;0.90;0.90;;;;;14.60;96352.00;;;;5054311;28;20196;-62
2023/10/11 08:29:30;;;;;;;1.47;1.37;;;;;14.80;96344.00;;;;5054101;28;20216;-62
2023/10/11 08:31:59;;;;;;;2.17;1.97;;;;;14.90;96346.00;;;;5054721;28;20226;-62
2023/10/11 08:34:27;;;;;;;1.63;1.53;;;;;15.10;96348.00;;;;5063193;28;20198;-62
2023/10/11 08:36:55;;;;;;;2.17;1.97;;;;;15.20;96346.00;;;;5074662;28;20195;-61
2023/10/11 08:39:35;;;;;;;1.80;1.70;;;;;15.50;96353.00;;;;5060473;28;20262;-61
2023/10/11 08:42:11;;;;;;;1.70;1.47;;;;;15.80;96349.00;;;;5052996;28;20227;-62
2023/10/11 08:44:40;;;;;;;1.83;1.73;;;;;16.00;96347.00;;;;5060749;28;20217;-62
2023/10/11 08:47:08;;;;;;;1.57;1.47;;;;;16.10;96346.00;;;;5072325;28;20249;-62
2023/10/11 08:49:46;;;;;;;1.20;1.10;;;;;16.20;96341.00;;;;5055313;28;20713;-62
2023/10/11 08:52:19;;;;;;;1.67;1.50;;;;;16.40;96342.00;;;;5074334;28;20261;-61
2023/10/11 08:54:47;;;;;;;1.03;1.00;;;;;16.70;96337.00;;;;5073294;28;20199;-62
2023/10/11 08:57:23;;;;;;;1.33;1.00;;;;;16.90;96336.00;;;;5070440;28;20202;-62
2023/10/11 08:59:51;;;;;;;2.87;1.40;;;;;17.10;96337.00;;;;5059380;28;20213;-62
2023/10/11 09:02:19;;;;;;;2.07;1.60;;;;;17.20;96337.00;;;;5073581;28;20559;-62
2023/10/11 09:04:59;;;;;;;1.70;1.60;;;;;17.30;96331.00;;;;5058187;28;20196;-62
2023/10/11 09:07:45;;;;;;;1.70;1.37;;;;;17.60;96332.00;;;;5056225;28;20204;-60
2023/10/11 09:10:24;;;;;;;1.07;1.07;;;;;17.90;96334.00;;;;5073936;28;20198;-61
2023/10/11 09:12:57;;;;;;;1.57;1.43;;;;;18.10;96330.00;;;;5057547;28;20262;-61
2023/10/11 09:15:40;;;;;;;1.47;1.37;;;;;18.30;96330.00;;;;5066962;28;20192;-61
2023/10/11 09:18:15;;;;;;;1.50;1.40;;;;;18.60;96324.00;;;;5053505;28;20223;-62
2023/10/11 09:20:44;;;;;;;1.23;1.13;;;;;18.90;96333.00;;;;5053334;28;20194;-62
2023/10/11 09:23:19;;;;;;;0.60;0.60;;;;;19.20;96326.00;;;;5049894;28;20196;-62
2023/10/11 09:25:57;;;;;;;1.53;1.40;;;;;19.60;96333.00;;;;5060490;28;20205;-62
2023/10/11 09:28:27;;;;;;;0.80;0.80;;;;;19.90;96330.00;;;;5064568;28;20265;-61
2023/10/11 09:31:15;;;;;;;0.87;0.87;;;;;20.30;96345.00;;;;5071113;28;20710;-62
2023/10/11 09:33:51;;;;;;;0.87;0.87;;;;;20.50;96339.00;;;;5061206;28;20574;-62
2023/10/11 09:36:20;;;;;;;1.63;1.53;;;;;20.70;96338.00;;;;5054806;28;20283;-62
2023/10/11 09:38:54;;;;;;;1.20;1.10;;;;;20.90;96339.00;;;;5065078;28;20196;-62
2023/10/11 09:41:25;;;;;;;1.60;0.77;;;;;21.10;96345.00;;;;5052225;28;20226;-62
2023/10/11 09:43:57;;;;;;;32.10;2.20;;;;;21.20;96310.00;;;;5053344;28;20192;-62
2023/10/11 09:46:30;;;;;;;0.83;0.70;;;;;21.50;96333.00;;;;5053145;28;20195;-62
2023/10/11 09:48:59;;;;;;;1.10;1.10;;;;;21.70;96332.00;;;;5066960;28;20218;-62
2023/10/11 09:51:27;;;;;;;2.73;1.83;;;;;21.90;96340.00;;;;5052689;28;20240;-62
2023/10/11 09:54:01;;;;;;;1.13;1.13;;;;;22.20;96340.00;;;;5052660;28;20479;-62
2023/10/11 09:56:37;;;;;;;1.05;1.05;;;;;22.30;96345.00;;;;5057163;28;20236;-62
2023/10/11 09:59:23;;;;;;;1.77;1.33;;;;;22.30;96342.00;;;;5072859;28;20187;-62
2023/10/11 10:02:02;;;;;;;1.23;1.15;;;;;22.50;96337.00;;;;5047172;28;20224;-62
2023/10/11 10:04:55;;;;;;;1.10;0.88;;;;;22.70;96344.00;;;;5072725;28;20585;-62
2023/10/11 10:07:25;;;;;;;6.53;1.35;;;;;22.80;96336.00;;;;5062138;28;20204;-62
2023/10/11 10:09:59;;;;;;;2.97;2.08;;;;;22.70;96336.00;;;;5052410;28;20204;-62
2023/10/11 10:12:32;;;;;;;1.00;1.00;;;;;22.90;96329.00;;;;5052585;28;20219;-62
2023/10/11 10:15:10;;;;;;;1.23;1.23;;;;;22.90;96326.00;;;;5052875;28;20195;-62
2023/10/11 10:17:38;;;;;;;1.42;1.33;;;;;23.00;96329.00;;;;5057038;28;20676;-62
2023/10/11 10:20:48;;;;;;;1.60;1.50;;;;;23.30;96329.00;;;;5062774;28;20258;-62
2023/10/11 10:23:32;;;;;;;1.55;1.00;;;;;23.30;96341.00;;;;5056761;28;20298;-62
2023/10/11 10:26:38;;;;;;;2.42;1.60;;;;;23.40;96336.00;;;;5070906;28;20274;-62
2023/10/11 10:29:12;;;;;;;2.22;1.90;;;;;23.50;96323.00;;;;5049027;28;20254;-62
2023/10/11 10:32:08;;;;;;;1.40;1.30;;;;;23.60;96326.00;;;;5050708;28;20224;-62
2023/10/11 10:34:41;;;;;;;1.73;1.30;;;;;23.80;96324.00;;;;5047528;28;20247;-62
2023/10/11 10:37:09;;;;;;;1.33;1.27;;;;;23.90;96325.00;;;;5058809;28;20729;-62
2023/10/11 10:39:47;;;;;;;1.23;1.23;;;;;24.20;96320.00;;;;5052209;28;20200;-62
2023/10/11 10:42:17;;;;;;;1.80;1.00;;;;;24.40;96319.00;;;;5051295;28;20297;-62
2023/10/11 10:44:52;;;;;;;5.60;1.15;;;;;24.50;96319.00;;;;5067254;28;20698;-60
2023/10/11 10:47:29;;;;;;;2.22;1.30;;;;;24.50;96317.00;;;;5047425;28;20203;-62
2023/10/11 10:50:03;;;;;;;1.55;1.45;;;;;24.60;96323.00;;;;5056607;28;20272;-62
2023/10/11 10:52:30;;;;;;;0.82;0.82;;;;;24.60;96318.00;;;;5060596;28;20233;-62
2023/10/11 10:55:01;;;;;;;0.80;0.80;;;;;24.70;96314.00;;;;5051657;28;20574;-62
2023/10/11 10:57:32;;;;;;;0.75;0.75;;;;;24.70;96325.00;;;;5060236;28;20198;-62
2023/10/11 11:00:05;;;;;;;3.25;0.88;;;;;24.50;96314.00;;;;5057760;28;20199;-62
2023/10/11 11:02:37;;;;;;;2.30;1.25;;;;;24.40;96334.00;;;;5071102;28;20251;-62
2023/10/11 11:05:15;;;;;;;1.02;1.02;;;;;24.60;96312.00;;;;5055206;28;20580;-62
2023/10/11 11:07:47;;;;;;;1.05;1.05;;;;;24.70;96316.00;;;;5063150;28;20210;-62
2023/10/11 11:10:19;;;;;;;1.30;1.23;;;;;24.70;96309.00;;;;5071450;28;20285;-62
2023/10/11 11:12:46;;;;;;;0.50;0.50;;;;;24.70;96310.00;;;;5057902;28;20215;-62
2023/10/11 11:15:20;;;;;;;2.65;2.42;;;;;24.90;96310.00;;;;5052133;28;20703;-62
2023/10/11 11:17:50;;;;;;;1.15;1.13;;;;;25.00;96319.00;;;;5051586;28;20246;-62
2023/10/11 11:20:32;;;;;;;0.60;0.60;;;;;24.90;96305.00;;;;5069891;28;20195;-63
2023/10/11 11:22:59;;;;;;;3.30;1.15;;;;;25.00;96297.00;;;;5071286;28;20326;-62
2023/10/11 11:25:28;;;;;;;1.13;1.10;;;;;25.10;96300.00;;;;5071722;28;20253;-62
2023/10/11 11:28:18;;;;;;;1.65;1.23;;;;;25.00;96298.00;;;;5070740;28;20730;-63
2023/10/11 11:31:04;;;;;;;1.40;1.30;;;;;25.00;96303.00;;;;5052585;28;20548;-62
2023/10/11 11:33:36;;;;;;;0.90;0.90;;;;;25.30;96302.00;;;;5051135;28;20192;-63
2023/10/11 11:36:10;;;;;;;1.00;1.00;;;;;25.70;96296.00;;;;5058815;28;20192;-62
2023/10/11 11:38:38;;;;;;;0.93;0.93;;;;;25.50;96294.00;;;;5057719;28;20211;-62
2023/10/11 11:41:15;;;;;;;0.98;0.98;;;;;25.40;96289.00;;;;5051957;28;20272;-62
2023/10/11 11:43:42;;;;;;;2.53;0.95;;;;;25.80;96286.00;;;;5051024;28;20191;-62
2023/10/11 11:46:09;;;;;;;1.45;1.27;;;;;25.70;96280.00;;;;5055791;28;20199;-62
2023/10/11 11:48:41;;;;;;;1.13;1.05;;;;;26.00;96280.00;;;;5070829;28;20577;-62
2023/10/11 11:51:13;;;;;;;8.52;1.55;;;;;26.20;96286.00;;;;5052234;28;20249;-62
2023/10/11 11:53:45;;;;;;;0.95;0.95;;;;;26.50;96281.00;;;;5046651;28;20653;-62
2023/10/11 11:56:11;;;;;;;1.15;1.15;;;;;26.30;96276.00;;;;5066405;28;20195;-62
2023/10/11 11:58:45;;;;;;;1.80;1.45;;;;;26.30;96266.00;;;;5050952;28;20579;-62
2023/10/11 12:01:15;;;;;;;1.20;1.20;;;;;26.70;96263.00;;;;5060982;28;20226;-62
2023/10/11 12:03:52;;;;;;;0.90;0.90;;;;;26.80;96260.00;;;;5063070;28;20652;-61
2023/10/11 12:06:21;;;;;;;1.40;1.30;;;;;26.30;96266.00;;;;5071131;28;20187;-61
2023/10/11 12:08:57;;;;;;;1.67;1.20;;;;;26.10;96254.00;;;;5057176;28;20560;-61
2023/10/11 12:11:28;;;;;;;1.13;0.98;;;;;26.00;96254.00;;;;5071296;28;20223;-63
2023/10/11 12:13:57;;;;;;;1.38;1.30;;;;;26.20;96253.00;;;;5054489;28;20192;-62
2023/10/11 12:16:25;;;;;;;1.20;0.93;;;;;26.30;96254.00;;;;5062355;28;20200;-61
2023/10/11 12:18:58;;;;;;;1.55;1.10;;;;;26.70;96246.00;;;;5050833;28;20709;-61
2023/10/11 12:21:26;;;;;;;0.60;0.60;;;;;26.90;96245.00;;;;5049927;28;20235;-61
2023/10/11 12:23:53;;;;;;;0.90;0.90;;;;;27.30;96247.00;;;;5051137;28;20245;-65
2023/10/11 12:26:25;;;;;;;1.35;1.25;;;;;26.60;96255.00;;;;5054966;28;20278;-64
2023/10/11 12:28:52;;;;;;;1.08;0.77;;;;;26.80;96251.00;;;;5057521;28;20211;-61
2023/10/11 12:31:20;;;;;;;2.05;1.27;;;;;26.50;96247.00;;;;5053347;28;20220;-61
2023/10/11 12:33:47;;;;;;;1.33;1.23;;;;;26.50;96254.00;;;;5071646;28;20197;-61
2023/10/11 12:36:20;;;;;;;0.70;0.70;;;;;26.90;96271.00;;;;5074193;28;20203;-61
2023/10/11 12:38:48;;;;;;;1.52;1.42;;;;;26.70;96253.00;;;;5061725;28;20220;-61
2023/10/11 12:41:15;;;;;;;0.82;0.82;;;;;27.20;96244.00;;;;5053363;28;20231;-61
2023/10/11 12:43:45;;;;;;;0.80;0.80;;;;;27.20;96251.00;;;;5053281;28;20569;-61
2023/10/11 12:46:12;;;;;;;2.80;1.23;;;;;27.00;96251.00;;;;5054617;28;20199;-61
2023/10/11 12:48:40;;;;;;;1.17;1.17;;;;;26.70;96236.00;;;;5054769;28;20663;-62
2023/10/11 12:51:07;;;;;;;1.00;0.98;;;;;27.00;96243.00;;;;5072687;28;20310;-62
2023/10/11 12:53:36;;;;;;;1.65;1.35;;;;;27.20;96237.00;;;;5065543;28;20203;-62
2023/10/11 12:56:04;;;;;;;1.17;1.08;;;;;27.20;96231.00;;;;5054120;28;20536;-62
2023/10/11 12:58:39;;;;;;;0.60;0.60;;;;;27.80;96228.00;;;;5054391;28;20204;-62
2023/10/11 13:01:11;;;;;;;1.10;1.08;;;;;27.80;96234.00;;;;5066709;28;20223;-62
2023/10/11 13:03:39;;;;;;;1.15;1.05;;;;;28.30;96228.00;;;;5054044;28;20192;-62